McBeth, Texas
Current Conditions -  °F | °C
As of 9:53 AM on Friday 24 Oct 2014 (Local Time) from KLBX Reporting Station
Clear Clear  
Wind Chill: 66°   Ceiling: Unl
Heat Index: 66°   Visibility: 10mi
Dew Point: 59°   Wind: 8mph
Humidity: 78%   Direction: 40°NE
Pressure: 30.16"   Gusts: NA
Location:  29.1898°N, 95.4754°W
Report Text: KLBX 241453Z AUTO 04007KT 10SM CLR 19/15 A3016 RMK AO2 SLP214 T01890150 53015
Loading
Personal Weather Stations






























Interactive Weather Map
Tropical Storm Tracking
New forecast layout! Learn more

10-Day Weather Forecast

Advertisements
Track Severe Weather on mobile